createdAt,value
2022-10-18T00:00:02.469Z,99354.34
2022-10-18T00:02:37.877Z,99359.00
2022-10-18T00:05:11.503Z,99345.66
2022-10-18T00:07:46.462Z,99355.84
2022-10-18T00:20:34.467Z,99358.19
2022-10-18T00:23:16.475Z,99363.44
2022-10-18T00:25:49.602Z,99356.34
2022-10-18T00:28:16.145Z,99358.28
2022-10-18T00:30:56.493Z,99361.72
2022-10-18T00:33:29.522Z,99360.00
2022-10-18T00:46:18.466Z,99365.19
2022-10-18T00:49:00.484Z,99360.75
2022-10-18T00:51:40.874Z,99348.50
2022-10-18T00:54:22.494Z,99351.94
2022-10-18T00:56:55.930Z,99347.53
2022-10-18T01:13:33.196Z,99353.41
2022-10-18T01:16:19.182Z,99359.78
2022-10-18T01:19:16.493Z,99351.22
2022-10-18T01:21:56.870Z,99347.78
2022-10-18T01:25:09.492Z,99348.75
2022-10-18T01:27:51.843Z,99348.00
2022-10-18T01:40:53.454Z,99345.56
2022-10-18T01:43:36.471Z,99343.97
2022-10-18T01:46:17.310Z,99353.03
2022-10-18T01:48:58.508Z,99352.28
2022-10-18T01:51:33.624Z,99341.66
2022-10-18T02:06:32.473Z,99341.66
2022-10-18T02:09:13.292Z,99346.28
2022-10-18T02:11:59.503Z,99341.13
2022-10-18T02:14:34.781Z,99332.34
2022-10-18T02:17:15.576Z,99328.91
2022-10-18T02:34:00.449Z,99352.88
2022-10-18T02:36:48.507Z,99349.47
2022-10-18T02:39:29.246Z,99352.16
2022-10-18T02:42:12.495Z,99352.16
2022-10-18T02:44:45.537Z,99368.41
2022-10-18T02:47:12.150Z,99360.44
2022-10-18T03:00:10.450Z,99367.53
2022-10-18T03:02:50.484Z,99369.34
2022-10-18T03:05:23.685Z,99370.22
2022-10-18T03:07:50.228Z,99362.16
2022-10-18T03:10:30.497Z,99376.44
2022-10-18T03:13:11.914Z,99371.19
2022-10-18T03:26:46.452Z,99375.69
2022-10-18T03:29:26.510Z,99374.09
2022-10-18T03:31:59.543Z,99371.53
2022-10-18T03:34:47.472Z,99374.47
2022-10-18T03:37:20.559Z,99380.81
2022-10-18T03:39:47.160Z,99381.78
2022-10-18T03:42:29.739Z,99386.28
2022-10-18T03:52:24.455Z,99380.41
2022-10-18T03:55:04.485Z,99385.06
2022-10-18T03:57:39.728Z,99383.56
2022-10-18T04:00:15.457Z,99383.81
2022-10-18T04:02:52.002Z,99380.34
2022-10-18T04:05:35.477Z,99384.88
2022-10-18T04:08:08.569Z,99375.09
2022-10-18T04:20:57.461Z,99356.59
2022-10-18T04:23:38.979Z,99357.47
2022-10-18T04:26:12.522Z,99353.91
2022-10-18T04:28:45.568Z,99352.19
2022-10-18T04:31:18.655Z,99352.44
2022-10-18T04:33:52.336Z,99346.31
2022-10-18T04:46:48.489Z,99345.56
2022-10-18T04:49:28.485Z,99343.88
2022-10-18T04:52:01.497Z,99350.09
2022-10-18T04:54:28.711Z,99343.00
2022-10-18T04:57:08.493Z,99343.00
2022-10-18T04:59:41.506Z,99342.88
2022-10-18T05:02:16.466Z,99348.25
2022-10-18T05:12:46.437Z,99340.06
2022-10-18T05:15:26.470Z,99346.50
2022-10-18T05:18:01.470Z,99348.66
2022-10-18T05:20:34.473Z,99348.78
2022-10-18T05:23:07.617Z,99348.91
2022-10-18T05:25:34.164Z,99345.47
2022-10-18T05:28:38.229Z,99351.72
2022-10-18T05:41:46.469Z,99354.75
2022-10-18T05:44:19.855Z,99356.69
2022-10-18T05:46:46.401Z,99357.66
2022-10-18T05:49:26.478Z,99353.16
2022-10-18T05:51:59.673Z,99354.00
2022-10-18T06:08:13.473Z,99355.84
2022-10-18T06:10:46.528Z,99363.78
2022-10-18T06:13:13.070Z,99355.72
2022-10-18T06:15:53.561Z,99364.63
2022-10-18T06:18:26.496Z,99357.31
2022-10-18T06:21:03.478Z,99351.94
2022-10-18T06:23:38.447Z,99354.50
2022-10-18T06:33:07.026Z,99352.09
2022-10-18T06:35:40.623Z,99356.53
2022-10-18T06:38:13.488Z,99356.53
2022-10-18T06:40:49.867Z,99348.22
2022-10-18T06:43:23.460Z,99358.97
2022-10-18T06:45:56.535Z,99366.81
2022-10-18T06:48:30.469Z,99358.75
2022-10-18T07:01:42.516Z,99336.16
2022-10-18T07:04:15.529Z,99326.25
2022-10-18T07:06:42.094Z,99321.84
2022-10-18T07:09:22.476Z,99311.00
2022-10-18T07:11:55.610Z,99319.16
2022-10-18T07:28:10.450Z,99299.63
2022-10-18T07:30:43.505Z,99307.56
2022-10-18T07:33:18.981Z,99307.69
2022-10-18T07:35:52.585Z,99305.72
2022-10-18T07:38:25.468Z,99311.22
2022-10-18T07:41:00.241Z,99307.56
2022-10-18T07:43:36.498Z,99310.13
2022-10-18T07:53:21.448Z,99326.03
2022-10-18T07:56:07.173Z,99305.38
2022-10-18T07:58:46.596Z,99291.78
2022-10-18T08:01:28.483Z,99294.41
2022-10-18T08:04:07.011Z,99318.47
2022-10-18T08:06:47.476Z,99312.13
2022-10-18T08:20:12.306Z,99300.41
2022-10-18T08:23:00.597Z,99300.50
2022-10-18T08:28:27.670Z,99302.09
2022-10-18T08:31:00.465Z,99298.44
2022-10-18T08:33:34.198Z,99290.34
2022-10-18T08:46:55.430Z,99299.94
2022-10-18T08:49:47.628Z,99296.22
2022-10-18T08:52:33.859Z,99292.56
2022-10-18T08:55:24.484Z,99294.28
2022-10-18T08:57:57.792Z,99279.03
2022-10-18T09:00:37.465Z,99280.75
2022-10-18T09:03:36.818Z,99279.78
2022-10-18T09:13:43.468Z,99276.88
2022-10-18T09:16:26.543Z,99287.84
2022-10-18T09:19:25.457Z,99290.63
2022-10-18T09:22:11.909Z,99293.31
2022-10-18T09:25:07.480Z,99283.34
2022-10-18T09:27:52.794Z,99271.72
2022-10-18T09:41:00.446Z,99233.47
2022-10-18T09:44:00.465Z,99235.94
2022-10-18T09:46:41.103Z,99241.06
2022-10-18T09:49:28.459Z,99240.81
2022-10-18T09:52:10.779Z,99244.25
2022-10-18T10:08:39.464Z,99217.38
2022-10-18T10:11:36.276Z,99221.78
2022-10-18T10:14:21.499Z,99210.00
2022-10-18T10:16:58.709Z,99217.84
2022-10-18T10:19:43.467Z,99215.03
2022-10-18T10:22:32.956Z,99219.31
2022-10-18T10:35:55.817Z,99195.06
2022-10-18T10:38:39.118Z,99187.75
2022-10-18T10:41:21.607Z,99180.41
2022-10-18T10:44:01.479Z,99178.47
2022-10-18T10:46:36.358Z,99175.50
2022-10-18T10:49:38.641Z,99171.69
2022-10-18T11:02:59.233Z,99139.31
2022-10-18T11:05:45.345Z,99129.06
2022-10-18T11:08:32.072Z,99123.28
2022-10-18T11:11:22.218Z,99127.03
2022-10-18T11:14:25.270Z,99109.53
2022-10-18T11:28:02.481Z,99114.06
2022-10-18T11:30:51.552Z,99118.22
2022-10-18T11:34:08.143Z,99119.91
2022-10-18T11:37:15.576Z,99118.94
2022-10-18T11:40:18.965Z,99122.34
2022-10-18T11:43:07.004Z,99109.16
2022-10-18T11:56:16.426Z,99222.38
2022-10-18T11:59:24.496Z,99234.25
2022-10-18T12:02:40.606Z,99225.56
2022-10-18T12:05:24.079Z,99219.59
2022-10-18T12:08:05.967Z,99224.38
2022-10-18T12:21:05.424Z,99245.69
2022-10-18T12:23:53.481Z,99245.06
2022-10-18T12:26:32.148Z,99237.25
2022-10-18T12:29:29.492Z,99243.84
2022-10-18T12:32:09.959Z,99241.56
2022-10-18T12:50:27.895Z,99250.84
2022-10-18T12:53:26.456Z,99255.50
2022-10-18T12:56:39.174Z,99261.16
2022-10-18T12:59:56.481Z,99267.50
2022-10-18T13:02:34.844Z,99268.47
2022-10-18T13:15:48.446Z,99254.53
2022-10-18T13:18:42.466Z,99265.53
2022-10-18T13:21:26.134Z,99260.16
2022-10-18T13:24:27.453Z,99272.63
2022-10-18T13:27:36.767Z,99282.53
2022-10-18T13:41:10.519Z,99269.44
2022-10-18T13:44:23.987Z,99276.78
2022-10-18T13:47:37.214Z,99283.03
2022-10-18T13:50:32.456Z,99286.69
2022-10-18T13:53:50.470Z,99280.47
2022-10-18T14:10:33.308Z,99295.38
2022-10-18T14:13:24.086Z,99299.03
2022-10-18T14:16:16.463Z,99303.56
2022-10-18T14:18:57.366Z,99305.41
2022-10-18T14:21:44.469Z,99313.47
2022-10-18T14:35:27.574Z,99306.63
2022-10-18T14:37:55.925Z,99311.25
2022-10-18T14:40:40.492Z,99308.56
2022-10-18T14:43:18.776Z,99304.16
2022-10-18T14:45:59.525Z,99295.38
2022-10-18T14:48:32.537Z,99296.34
2022-10-18T15:01:27.509Z,99282.28
2022-10-18T15:04:17.445Z,99278.69
2022-10-18T15:06:50.485Z,99266.25
2022-10-18T15:09:29.477Z,99270.75
2022-10-18T15:12:06.145Z,99269.91
2022-10-18T15:14:48.453Z,99272.59
2022-10-18T15:17:26.913Z,99265.72
2022-10-18T15:30:30.420Z,99304.25
2022-10-18T15:33:14.481Z,99309.75
2022-10-18T15:35:48.043Z,99301.56
2022-10-18T15:38:30.474Z,99299.00
2022-10-18T15:41:37.063Z,99294.59
2022-10-18T15:54:54.430Z,99302.03
2022-10-18T15:57:37.759Z,99303.84
2022-10-18T16:00:22.319Z,99311.94
2022-10-18T16:03:02.453Z,99311.94
2022-10-18T16:05:37.362Z,99319.28
2022-10-18T16:08:11.459Z,99320.13
2022-10-18T16:21:40.761Z,99330.34
2022-10-18T16:24:13.522Z,99336.56
2022-10-18T16:26:40.393Z,99337.56
2022-10-18T16:29:25.447Z,99345.63
2022-10-18T16:31:59.305Z,99350.25
2022-10-18T16:34:33.458Z,99349.41
2022-10-18T16:37:08.969Z,99354.78
2022-10-18T16:49:56.470Z,99374.78
2022-10-18T16:52:38.761Z,99366.84
2022-10-18T16:55:11.957Z,99358.91
2022-10-18T16:57:45.463Z,99361.47
2022-10-18T17:00:21.495Z,99363.41
2022-10-18T17:02:56.472Z,99361.69
2022-10-18T17:16:10.894Z,99376.34
2022-10-18T17:18:43.522Z,99368.41
2022-10-18T17:21:10.083Z,99374.75
2022-10-18T17:23:50.498Z,99378.28
2022-10-18T17:26:28.830Z,99387.34
2022-10-18T17:29:12.535Z,99377.69
2022-10-18T17:42:23.475Z,99386.72
2022-10-18T17:44:57.794Z,99383.16
2022-10-18T17:47:31.748Z,99383.28
2022-10-18T17:50:06.103Z,99387.81
2022-10-18T17:52:40.734Z,99385.22
2022-10-18T17:55:15.109Z,99383.59
2022-10-18T17:57:50.498Z,99389.09
2022-10-18T18:11:00.450Z,99383.09
2022-10-18T18:13:28.928Z,99389.44
2022-10-18T18:16:20.458Z,99381.63
2022-10-18T18:18:58.420Z,99378.06
2022-10-18T18:21:38.461Z,99387.00
2022-10-18T18:24:12.328Z,99390.53
2022-10-18T18:37:03.425Z,99380.09
2022-10-18T18:39:43.461Z,99379.25
2022-10-18T18:42:16.502Z,99376.69
2022-10-18T18:44:43.062Z,99376.81
2022-10-18T18:47:23.672Z,99394.75
2022-10-18T19:04:02.422Z,99392.38
2022-10-18T19:06:45.491Z,99385.41
2022-10-18T19:09:18.621Z,99381.88
2022-10-18T19:11:54.446Z,99383.69
2022-10-18T19:14:27.489Z,99384.69
2022-10-18T19:17:02.453Z,99387.47
2022-10-18T19:30:17.448Z,99376.72
2022-10-18T19:32:50.521Z,99381.38
2022-10-18T19:35:17.090Z,99381.47
2022-10-18T19:37:57.457Z,99382.22
2022-10-18T19:40:30.497Z,99382.22
2022-10-18T19:42:57.042Z,99379.53
2022-10-18T19:55:53.421Z,99390.50
2022-10-18T19:58:34.701Z,99387.81
2022-10-18T20:01:07.611Z,99389.63
2022-10-18T20:03:34.294Z,99381.69
2022-10-18T20:06:14.458Z,99387.19
2022-10-18T20:08:48.014Z,99387.28
2022-10-18T20:22:21.418Z,99392.13
2022-10-18T20:25:03.460Z,99397.50
2022-10-18T20:27:36.589Z,99396.88
2022-10-18T20:30:11.396Z,99400.50
2022-10-18T20:32:44.641Z,99406.00
2022-10-18T20:35:17.455Z,99406.00
2022-10-18T20:37:50.645Z,99399.16
2022-10-18T20:50:39.430Z,99416.09
2022-10-18T20:53:19.466Z,99414.38
2022-10-18T20:55:52.519Z,99416.44
2022-10-18T20:58:19.067Z,99415.69
2022-10-18T21:01:00.745Z,99411.53
2022-10-18T21:03:37.129Z,99408.94
2022-10-18T21:16:34.428Z,99414.63
2022-10-18T21:19:18.468Z,99409.25
2022-10-18T21:21:54.597Z,99409.25
2022-10-18T21:24:30.456Z,99407.53
2022-10-18T21:27:03.569Z,99401.94
2022-10-18T21:29:30.104Z,99405.59
2022-10-18T21:42:43.424Z,99405.59
2022-10-18T21:45:23.446Z,99413.72
2022-10-18T21:47:56.815Z,99409.25
2022-10-18T21:50:30.478Z,99408.38
2022-10-18T21:53:03.541Z,99425.44
2022-10-18T21:55:30.133Z,99416.41
2022-10-18T21:58:12.470Z,99420.06
2022-10-18T22:11:23.444Z,99418.34
2022-10-18T22:13:58.882Z,99415.56
2022-10-18T22:16:32.452Z,99420.19
2022-10-18T22:19:06.894Z,99413.09
2022-10-18T22:21:41.484Z,99418.47
2022-10-18T22:24:14.873Z,99406.88
2022-10-18T22:37:04.422Z,99394.84
2022-10-18T22:39:44.434Z,99389.38
2022-10-18T22:42:17.606Z,99390.31
2022-10-18T22:44:44.150Z,99377.91
2022-10-18T22:47:24.421Z,99381.63
2022-10-18T23:04:02.413Z,99365.97
2022-10-18T23:06:43.121Z,99371.44
2022-10-18T23:09:16.518Z,99359.00
2022-10-18T23:11:49.441Z,99350.22
2022-10-18T23:14:22.560Z,99355.56
2022-10-18T23:16:49.097Z,99350.66
2022-10-18T23:29:43.411Z,99357.09
2022-10-18T23:32:23.426Z,99363.53
2022-10-18T23:34:58.714Z,99366.22
2022-10-18T23:37:31.721Z,99367.16
2022-10-18T23:40:08.236Z,99357.41
2022-10-18T23:42:41.455Z,99353.97
2022-10-18T23:56:28.449Z,99358.16
2022-10-18T23:59:01.489Z,99366.31
